Time;durP1;ratioP1;P1;durP2;ratioP2;P2;SDS_P1;SDS_P2;PMS_P1;PMS_P2;Temp;Humidity;BMP_temperature;BMP_pressure;BME280_temperature;BME280_humidity;BME280_pressure;Samples;Min_cycle;Max_cycle;Signal;HPM_P1;HPM_P2
2022/04/07 00:01:55;;;;;;;10.70;3.90;;;9.20;99.90;;;;;;5093726;28;20040;-69
2022/04/07 00:04:21;;;;;;;7.13;3.08;;;9.20;99.90;;;;;;5075679;28;20040;-69
2022/04/07 00:06:46;;;;;;;13.07;3.60;;;9.20;99.90;;;;;;5075063;28;20386;-69
2022/04/07 00:09:12;;;;;;;15.85;3.80;;;9.20;99.90;;;;;;5074975;28;20059;-69
2022/04/07 00:11:38;;;;;;;10.57;3.63;;;9.20;99.90;;;;;;5075325;28;20044;-69
2022/04/07 00:14:04;;;;;;;9.57;4.35;;;9.20;99.90;;;;;;5091301;28;20032;-69
2022/04/07 00:16:29;;;;;;;17.55;3.42;;;9.20;99.90;;;;;;5075480;28;20044;-69
2022/04/07 00:18:55;;;;;;;11.77;4.25;;;9.20;99.90;;;;;;5075340;28;20121;-70
2022/04/07 00:21:46;;;;;;;8.32;2.92;;;9.20;99.90;;;;;;5092701;28;20044;-69
2022/04/07 00:24:07;;;;;;;10.18;2.47;;;9.20;99.90;;;;;;5074531;28;20109;-69
2022/04/07 00:26:34;;;;;;;6.50;1.90;;;9.10;99.90;;;;;;5075366;28;20062;-69
2022/04/07 00:28:59;;;;;;;8.20;2.20;;;9.10;99.90;;;;;;5074551;28;20081;-69
2022/04/07 00:31:25;;;;;;;9.90;2.13;;;9.10;99.90;;;;;;5074959;28;20426;-69
2022/04/07 00:33:51;;;;;;;5.90;1.75;;;9.10;99.90;;;;;;5075153;28;20055;-69
2022/04/07 00:36:17;;;;;;;12.35;2.67;;;9.10;99.90;;;;;;5092068;28;20079;-70
2022/04/07 00:38:42;;;;;;;11.68;2.45;;;9.10;99.90;;;;;;5093036;28;20036;-69
2022/04/07 00:41:08;;;;;;;8.73;2.20;;;9.00;99.90;;;;;;5074897;28;20498;-69
2022/04/07 00:43:36;;;;;;;12.32;2.58;;;9.10;99.90;;;;;;5074294;28;20536;-69
2022/04/07 00:46:04;;;;;;;10.68;2.88;;;9.00;99.90;;;;;;5092807;28;20048;-69
2022/04/07 00:48:35;;;;;;;13.18;3.20;;;9.00;99.90;;;;;;5091949;28;20397;-69
2022/04/07 00:51:01;;;;;;;13.90;3.03;;;9.10;99.90;;;;;;5074306;28;20139;-69
2022/04/07 00:53:27;;;;;;;10.90;2.55;;;9.10;99.90;;;;;;5074831;28;20044;-69
2022/04/07 00:55:53;;;;;;;13.20;3.25;;;9.10;99.90;;;;;;5092272;28;20048;-69
2022/04/07 00:58:19;;;;;;;15.77;3.20;;;9.10;99.90;;;;;;5092503;28;20123;-69
2022/04/07 01:00:45;;;;;;;17.10;3.95;;;9.10;99.90;;;;;;5074488;28;20047;-69
2022/04/07 01:03:11;;;;;;;16.92;3.40;;;9.10;99.90;;;;;;5073347;28;20040;-69
2022/04/07 01:05:38;;;;;;;16.33;3.90;;;9.10;99.90;;;;;;5092539;28;20040;-69
2022/04/07 01:08:08;;;;;;;17.20;4.18;;;9.10;99.90;;;;;;5092073;28;20048;-69
2022/04/07 01:10:34;;;;;;;15.73;4.05;;;9.10;99.90;;;;;;5074071;28;20048;-69
2022/04/07 01:12:59;;;;;;;23.85;4.35;;;9.10;99.90;;;;;;5092349;28;20040;-70
2022/04/07 01:15:25;;;;;;;15.90;4.05;;;9.00;99.90;;;;;;5074281;28;20047;-69
2022/04/07 01:17:50;;;;;;;23.58;5.95;;;9.10;99.90;;;;;;5073570;28;20055;-69
2022/04/07 01:20:16;;;;;;;15.10;3.35;;;8.90;99.90;;;;;;5073361;28;20048;-69
2022/04/07 01:22:46;;;;;;;18.35;3.90;;;10.60;99.90;;;;;;5092350;28;20475;-69
2022/04/07 01:25:13;;;;;;;18.83;3.55;;;8.80;99.90;;;;;;5073168;28;20055;-70
2022/04/07 01:27:38;;;;;;;18.48;4.47;;;8.70;99.90;;;;;;5074102;28;20051;-69
2022/04/07 01:30:07;;;;;;;14.68;3.97;;;8.70;99.90;;;;;;5073616;28;20048;-69
2022/04/07 01:32:48;;;;;;;17.67;4.18;;;8.70;99.90;;;;;;5091408;28;20047;-68
2022/04/07 01:35:14;;;;;;;17.48;3.13;;;8.70;99.90;;;;;;5073084;28;20040;-69
2022/04/07 01:37:42;;;;;;;15.43;4.53;;;8.70;99.90;;;;;;5073095;28;20070;-69
2022/04/07 01:40:10;;;;;;;20.27;3.40;;;8.70;99.90;;;;;;5073988;28;20078;-69
2022/04/07 01:42:37;;;;;;;21.75;4.20;;;8.70;99.90;;;;;;5074126;28;20036;-69
2022/04/07 01:45:05;;;;;;;14.52;3.63;;;8.70;99.90;;;;;;5072878;28;20047;-70
2022/04/07 01:47:34;;;;;;;20.83;4.63;;;8.70;99.90;;;;;;5075368;28;20036;-69
2022/04/07 01:50:06;;;;;;;15.77;3.85;;;8.80;99.90;;;;;;5077817;28;20055;-70
2022/04/07 01:52:34;;;;;;;18.15;4.05;;;8.80;99.90;;;;;;5098736;28;20061;-69
2022/04/07 01:55:00;;;;;;;17.85;4.57;;;8.80;99.90;;;;;;5076729;28;20048;-70
2022/04/07 01:57:26;;;;;;;22.27;4.63;;;8.80;99.90;;;;;;5097640;28;20040;-69
2022/04/07 01:59:53;;;;;;;30.63;6.30;;;8.80;99.90;;;;;;5118042;27;20044;-69
2022/04/07 02:02:21;;;;;;;22.45;4.57;;;8.80;99.90;;;;;;5121642;28;20069;-68
2022/04/07 02:04:58;;;;;;;24.35;4.72;;;8.80;99.90;;;;;;5105703;28;20432;-69
2022/04/07 02:07:31;;;;;;;13.40;3.50;;;8.80;99.90;;;;;;5093149;28;20058;-69
2022/04/07 02:09:57;;;;;;;21.98;3.95;;;8.80;99.90;;;;;;5111761;28;20035;-69
2022/04/07 02:12:23;;;;;;;16.63;4.13;;;8.90;99.90;;;;;;5093677;28;20051;-69
2022/04/07 02:14:50;;;;;;;20.45;4.15;;;8.80;99.90;;;;;;5092763;28;20094;-69
2022/04/07 02:17:20;;;;;;;24.05;4.63;;;8.90;99.90;;;;;;5111745;28;20051;-69
2022/04/07 02:19:49;;;;;;;25.17;4.95;;;8.80;99.90;;;;;;5111707;28;20407;-69
2022/04/07 02:22:14;;;;;;;21.25;3.85;;;8.90;99.90;;;;;;5093708;28;20386;-69
2022/04/07 02:24:41;;;;;;;22.20;4.82;;;8.90;99.90;;;;;;5112014;28;20187;-69
2022/04/07 02:27:08;;;;;;;26.48;4.82;;;8.90;99.90;;;;;;5089361;28;20048;-69
2022/04/07 02:29:34;;;;;;;22.65;5.57;;;8.90;99.90;;;;;;5088423;28;20514;-69
2022/04/07 02:31:59;;;;;;;24.40;4.70;;;8.90;99.90;;;;;;5095780;28;20057;-69
2022/04/07 02:34:25;;;;;;;19.65;5.10;;;8.90;99.90;;;;;;5096912;28;20428;-69
2022/04/07 02:36:51;;;;;;;25.73;5.03;;;8.90;99.90;;;;;;5132392;27;20043;-69
2022/04/07 02:39:16;;;;;;;22.98;4.72;;;8.80;99.90;;;;;;5118042;27;20043;-69
2022/04/07 02:41:42;;;;;;;23.25;4.32;;;8.80;99.90;;;;;;5100137;28;20044;-69
2022/04/07 02:44:07;;;;;;;13.32;3.78;;;8.80;99.90;;;;;;5097257;28;20047;-69
2022/04/07 02:46:33;;;;;;;17.02;3.25;;;8.80;99.90;;;;;;5097346;28;20379;-69
2022/04/07 02:48:58;;;;;;;24.40;4.78;;;8.80;99.90;;;;;;5114689;28;20122;-69
2022/04/07 02:51:24;;;;;;;19.77;4.53;;;8.80;99.90;;;;;;5097339;28;20493;-69
2022/04/07 02:53:57;;;;;;;18.10;4.47;;;8.80;99.90;;;;;;5115659;28;20490;-69
2022/04/07 02:56:22;;;;;;;;;;;8.80;99.90;;;;;;5097005;28;20055;-69
2022/04/07 02:58:48;;;;;;;21.85;4.68;;;8.80;99.90;;;;;;5119455;27;19920;-69
2022/04/07 03:01:14;;;;;;;18.02;4.22;;;8.80;99.90;;;;;;5103956;27;20665;-69
2022/04/07 03:03:40;;;;;;;30.65;4.78;;;8.80;99.90;;;;;;5128049;27;20035;-69
2022/04/07 03:06:05;;;;;;;26.90;4.82;;;8.90;99.90;;;;;;5112302;27;20523;-69
2022/04/07 03:08:33;;;;;;;16.33;4.50;;;8.90;99.90;;;;;;5115770;27;20039;-70
2022/04/07 03:11:02;;;;;;;17.23;4.47;;;8.90;99.90;;;;;;5114022;28;20040;-70
2022/04/07 03:13:28;;;;;;;15.27;3.28;;;8.80;99.90;;;;;;5135373;27;20039;-70
2022/04/07 03:15:54;;;;;;;18.02;4.90;;;8.90;99.90;;;;;;5117236;27;20058;-70
2022/04/07 03:18:20;;;;;;;20.08;4.35;;;8.90;99.90;;;;;;5099257;28;20051;-69
2022/04/07 03:20:46;;;;;;;16.90;3.80;;;8.90;99.90;;;;;;5115039;28;20044;-69
2022/04/07 03:23:15;;;;;;;19.83;4.05;;;8.90;99.90;;;;;;5095649;28;20047;-70
2022/04/07 03:25:41;;;;;;;14.32;3.92;;;8.90;99.90;;;;;;5125083;27;20104;-69
2022/04/07 03:28:06;;;;;;;16.40;4.03;;;8.90;99.90;;;;;;5103064;28;20482;-69
2022/04/07 03:30:32;;;;;;;14.95;4.07;;;8.90;99.90;;;;;;5095878;28;20079;-69
2022/04/07 03:32:58;;;;;;;18.35;4.53;;;8.90;99.90;;;;;;5096632;28;20154;-69
2022/04/07 03:35:24;;;;;;;20.20;4.22;;;8.90;99.90;;;;;;5096734;28;20040;-69
2022/04/07 03:37:50;;;;;;;16.88;4.32;;;9.00;99.90;;;;;;5095864;28;20066;-69
2022/04/07 03:40:16;;;;;;;13.75;3.65;;;9.00;99.90;;;;;;5096216;28;20073;-69
2022/04/07 03:42:42;;;;;;;15.98;4.70;;;9.00;99.90;;;;;;5095337;28;20036;-69
2022/04/07 03:45:08;;;;;;;21.65;4.45;;;9.00;99.90;;;;;;5095590;28;20039;-69
2022/04/07 03:47:33;;;;;;;15.77;4.75;;;9.00;99.90;;;;;;5103873;27;20175;-69
2022/04/07 03:50:00;;;;;;;19.55;5.00;;;9.10;99.90;;;;;;5116086;27;20457;-69
2022/04/07 03:52:26;;;;;;;21.80;4.40;;;9.10;99.90;;;;;;5115726;27;20051;-69
2022/04/07 03:54:52;;;;;;;17.33;4.53;;;9.20;99.90;;;;;;5134763;27;20043;-69
2022/04/07 03:57:18;;;;;;;17.15;4.18;;;9.20;99.90;;;;;;5111074;28;20129;-69
2022/04/07 03:59:44;;;;;;;17.98;4.80;;;9.10;99.90;;;;;;5113554;28;20035;-69
2022/04/07 04:02:10;;;;;;;15.75;3.85;;;9.10;99.90;;;;;;5095876;28;20478;-69
2022/04/07 04:04:36;;;;;;;22.20;4.70;;;9.00;99.90;;;;;;5113996;28;20042;-69
2022/04/07 04:07:03;;;;;;;27.23;4.78;;;8.90;99.90;;;;;;5094600;28;20135;-70
2022/04/07 04:09:29;;;;;;;14.43;3.90;;;8.80;99.90;;;;;;5095829;28;20039;-69
2022/04/07 04:11:54;;;;;;;22.63;4.97;;;8.80;99.90;;;;;;5095738;28;20043;-70
2022/04/07 04:14:20;;;;;;;18.67;5.13;;;8.80;99.90;;;;;;5113441;28;20052;-69
2022/04/07 04:16:45;;;;;;;23.25;5.40;;;8.80;99.90;;;;;;5114081;28;20074;-70
2022/04/07 04:19:11;;;;;;;22.48;4.70;;;8.80;99.90;;;;;;5113810;28;20117;-70
2022/04/07 04:21:37;;;;;;;27.52;5.78;;;8.70;99.90;;;;;;5113168;28;20110;-70
2022/04/07 04:24:03;;;;;;;22.58;5.68;;;8.70;99.90;;;;;;5095524;28;20058;-70
2022/04/07 04:26:29;;;;;;;26.52;6.22;;;8.70;99.90;;;;;;5113260;28;20047;-69
2022/04/07 04:28:55;;;;;;;26.23;5.47;;;8.60;99.90;;;;;;5095274;28;20521;-70
2022/04/07 04:31:24;;;;;;;24.50;5.22;;;8.60;99.90;;;;;;5113810;28;20046;-70
2022/04/07 04:33:51;;;;;;;22.42;4.57;;;8.60;99.90;;;;;;5095022;28;20063;-69
2022/04/07 04:36:17;;;;;;;33.88;5.68;;;8.60;99.90;;;;;;5095040;28;20047;-70
2022/04/07 04:38:42;;;;;;;24.67;4.80;;;8.60;99.90;;;;;;5113763;28;20406;-69
2022/04/07 04:41:09;;;;;;;34.15;6.68;;;8.60;99.90;;;;;;5094265;28;20073;-70
2022/04/07 04:43:34;;;;;;;29.02;5.57;;;8.60;99.90;;;;;;5094682;28;20054;-69
2022/04/07 04:46:00;;;;;;;31.65;7.20;;;8.60;99.90;;;;;;5083948;28;20043;-70
2022/04/07 04:48:26;;;;;;;31.65;5.43;;;8.60;99.90;;;;;;5130492;27;20039;-69
2022/04/07 04:50:51;;;;;;;26.65;5.20;;;8.60;99.90;;;;;;5115399;27;20074;-69
2022/04/07 04:53:17;;;;;;;26.60;7.47;;;8.60;99.90;;;;;;5133477;27;20047;-69
2022/04/07 04:55:42;;;;;;;34.85;7.18;;;8.50;99.90;;;;;;5114670;27;20051;-69
2022/04/07 04:58:08;;;;;;;29.83;5.78;;;8.60;99.90;;;;;;5115313;27;20501;-69
2022/04/07 05:00:33;;;;;;;21.08;5.13;;;8.50;99.90;;;;;;5103134;28;20047;-69
2022/04/07 05:02:59;;;;;;;25.85;5.97;;;8.50;99.90;;;;;;5112113;28;20055;-69
2022/04/07 05:05:25;;;;;;;30.60;6.55;;;8.40;99.90;;;;;;5095016;28;20086;-70
2022/04/07 05:07:50;;;;;;;25.90;5.80;;;8.40;99.90;;;;;;5091288;28;20040;-69
2022/04/07 05:10:16;;;;;;;24.90;5.78;;;8.40;99.90;;;;;;5093669;27;20474;-70
2022/04/07 05:12:41;;;;;;;29.88;6.32;;;8.40;99.90;;;;;;5114939;27;20039;-70
2022/04/07 05:15:07;;;;;;;22.60;4.65;;;8.40;99.90;;;;;;5132881;27;20051;-69
2022/04/07 05:17:33;;;;;;;27.02;5.72;;;8.30;99.90;;;;;;5132679;27;20398;-70
2022/04/07 05:19:59;;;;;;;23.00;4.57;;;8.30;99.90;;;;;;5132903;27;20043;-70
2022/04/07 05:22:24;;;;;;;12.05;3.00;;;8.30;99.90;;;;;;5106449;28;20444;-70
2022/04/07 05:24:50;;;;;;;13.63;3.00;;;8.30;99.90;;;;;;5112088;28;20044;-70
2022/04/07 05:27:16;;;;;;;12.43;2.72;;;8.00;99.90;;;;;;5112454;28;20454;-70
2022/04/07 05:29:42;;;;;;;11.35;2.65;;;7.80;99.90;;;;;;5111830;28;20044;-70
2022/04/07 05:32:08;;;;;;;13.07;2.95;;;7.50;99.90;;;;;;5112287;28;20040;-70
2022/04/07 05:34:33;;;;;;;7.95;2.25;;;7.30;99.90;;;;;;5094432;28;20051;-70
2022/04/07 05:36:59;;;;;;;19.65;3.53;;;7.20;99.90;;;;;;5111712;28;20047;-70
2022/04/07 05:39:25;;;;;;;13.10;2.60;;;7.10;99.90;;;;;;5112191;28;20047;-69
2022/04/07 05:41:51;;;;;;;10.93;2.83;;;7.00;99.90;;;;;;5094474;28;20135;-69
2022/04/07 05:44:16;;;;;;;8.55;1.90;;;7.00;99.90;;;;;;5111235;27;20050;-69
2022/04/07 05:46:42;;;;;;;6.70;1.70;;;6.90;99.90;;;;;;5095219;27;20051;-70
2022/04/07 05:49:10;;;;;;;6.80;1.70;;;6.90;99.90;;;;;;5106017;28;20051;-70
2022/04/07 05:51:36;;;;;;;9.85;1.67;;;6.80;99.90;;;;;;5110837;28;20047;-70
2022/04/07 05:54:02;;;;;;;2.97;0.80;;;6.70;99.90;;;;;;5117335;27;20035;-70
2022/04/07 05:56:28;;;;;;;3.92;0.90;;;6.60;99.90;;;;;;5114283;28;20116;-70
2022/04/07 05:58:54;;;;;;;6.07;1.30;;;6.50;99.90;;;;;;5131897;27;20071;-69
2022/04/07 06:01:20;;;;;;;3.78;1.00;;;6.30;99.90;;;;;;5132655;27;20094;-69
2022/04/07 06:03:45;;;;;;;7.63;1.98;;;6.30;99.90;;;;;;5132584;28;20071;-69
2022/04/07 06:06:11;;;;;;;5.28;1.67;;;6.20;99.90;;;;;;5131184;27;20047;-70
2022/04/07 06:08:37;;;;;;;10.77;1.60;;;6.10;99.90;;;;;;5132555;28;20517;-70
2022/04/07 06:11:02;;;;;;;7.13;1.27;;;6.10;99.90;;;;;;5113905;28;20046;-71
2022/04/07 06:13:28;;;;;;;2.55;0.90;;;6.00;99.90;;;;;;5113137;28;20466;-70
2022/04/07 06:15:53;;;;;;;6.30;1.77;;;6.00;99.90;;;;;;5114058;28;20067;-69
2022/04/07 06:18:19;;;;;;;5.97;1.50;;;5.90;99.90;;;;;;5126796;28;20047;-70
2022/04/07 06:20:46;;;;;;;5.75;1.40;;;5.90;99.90;;;;;;5126779;28;20130;-70
2022/04/07 06:23:12;;;;;;;6.32;1.58;;;5.90;99.90;;;;;;5132325;28;20405;-69
2022/04/07 06:25:38;;;;;;;6.15;1.17;;;5.80;99.90;;;;;;5132435;28;20054;-69
2022/04/07 06:28:04;;;;;;;6.22;1.05;;;5.80;99.90;;;;;;5094068;28;20091;-69
2022/04/07 06:30:30;;;;;;;10.25;2.17;;;5.80;99.90;;;;;;5113060;28;20044;-70
2022/04/07 06:32:56;;;;;;;4.53;1.00;;;5.80;99.90;;;;;;5099382;28;20031;-70
2022/04/07 06:35:22;;;;;;;2.80;0.70;;;5.80;99.90;;;;;;5110361;28;20118;-70
2022/04/07 06:37:57;;;;;;;8.30;1.35;;;5.80;99.90;;;;;;5113811;28;20119;-69
2022/04/07 06:40:28;;;;;;;3.42;0.80;;;5.80;99.90;;;;;;5100066;28;20047;-69
2022/04/07 06:42:56;;;;;;;1.67;0.70;;;5.80;99.90;;;;;;5111099;28;20075;-69
2022/04/07 06:45:22;;;;;;;2.72;0.98;;;5.80;99.90;;;;;;5086376;28;20044;-69
2022/04/07 06:47:48;;;;;;;3.80;0.40;;;5.80;99.90;;;;;;5087004;28;20036;-68
2022/04/07 06:50:15;;;;;;;3.15;0.57;;;5.80;99.90;;;;;;5112041;28;20055;-70
2022/04/07 06:52:42;;;;;;;4.57;0.85;;;5.80;99.90;;;;;;5114171;28;20375;-69
2022/04/07 06:55:09;;;;;;;3.55;0.85;;;5.90;99.90;;;;;;5131325;28;20492;-69
2022/04/07 06:58:11;;;;;;;2.78;1.10;;;5.80;99.90;;;;;;5118170;28;20067;-69
2022/04/07 07:00:43;;;;;;;2.58;0.93;;;5.80;99.90;;;;;;5062230;28;20447;-70
2022/04/07 07:03:09;;;;;;;3.85;1.00;;;5.90;99.90;;;;;;5092430;28;20036;-69
2022/04/07 07:05:36;;;;;;;8.77;1.90;;;5.90;99.90;;;;;;5114684;28;20110;-69
2022/04/07 07:08:12;;;;;;;4.07;1.35;;;5.90;99.90;;;;;;5122852;28;20397;-69
2022/04/07 07:10:38;;;;;;;8.05;0.68;;;6.00;99.90;;;;;;5105670;28;20051;-67
2022/04/07 07:13:03;;;;;;;6.63;1.35;;;6.00;99.90;;;;;;5117015;28;20524;-66
2022/04/07 07:15:29;;;;;;;6.47;1.40;;;6.00;99.90;;;;;;5105035;28;20362;-69
2022/04/07 07:17:55;;;;;;;10.32;2.25;;;6.10;99.90;;;;;;5112745;28;20114;-65
2022/04/07 07:20:20;;;;;;;4.70;0.93;;;6.10;99.90;;;;;;5102607;28;20182;-70
2022/04/07 07:22:46;;;;;;;5.25;0.98;;;6.10;99.90;;;;;;5096669;28;20371;-70
2022/04/07 07:25:12;;;;;;;3.65;1.13;;;6.10;99.90;;;;;;5115504;28;20043;-69
2022/04/07 07:27:46;;;;;;;4.35;0.98;;;6.20;99.90;;;;;;5097649;28;20047;-71
2022/04/07 07:30:15;;;;;;;4.97;1.23;;;6.20;99.90;;;;;;5110022;28;20093;-70
2022/04/07 07:32:42;;;;;;;6.65;1.50;;;6.30;99.90;;;;;;5115250;28;20051;-71
2022/04/07 07:35:09;;;;;;;7.45;1.00;;;6.30;99.90;;;;;;5105150;27;20379;-69
2022/04/07 07:37:35;;;;;;;5.40;1.42;;;6.30;99.90;;;;;;5125204;27;20088;-68
2022/04/07 07:40:08;;;;;;;4.90;1.10;;;6.30;99.90;;;;;;5095054;28;20128;-69
2022/04/07 07:42:36;;;;;;;3.60;0.82;;;6.30;99.90;;;;;;5091789;28;20055;-69
2022/04/07 07:45:02;;;;;;;3.70;1.25;;;6.30;99.90;;;;;;5114043;28;20039;-70
2022/04/07 07:47:28;;;;;;;3.72;0.60;;;6.30;99.90;;;;;;5091119;28;20051;-70
2022/04/07 07:49:54;;;;;;;4.00;0.80;;;6.40;99.90;;;;;;5087671;28;20486;-70
2022/04/07 07:52:20;;;;;;;3.28;0.93;;;6.50;99.90;;;;;;5085252;28;20055;-65
2022/04/07 07:54:46;;;;;;;8.32;1.58;;;6.60;99.90;;;;;;5077629;27;20047;-70
2022/04/07 07:57:11;;;;;;;8.68;1.58;;;6.70;99.90;;;;;;5093168;28;20051;-70
2022/04/07 07:59:37;;;;;;;9.35;1.73;;;6.80;99.90;;;;;;5106460;28;20042;-70
2022/04/07 08:02:03;;;;;;;7.20;1.38;;;6.90;99.90;;;;;;5096943;28;20134;-70
2022/04/07 08:04:29;;;;;;;4.22;1.00;;;7.10;99.90;;;;;;5089177;28;20040;-70
2022/04/07 08:06:54;;;;;;;9.43;1.73;;;7.20;99.90;;;;;;5106980;27;20059;-70
2022/04/07 08:09:20;;;;;;;3.30;1.00;;;7.40;99.90;;;;;;5107439;28;20105;-70
2022/04/07 08:11:45;;;;;;;7.05;1.73;;;7.50;99.90;;;;;;5112087;28;20051;-71
2022/04/07 08:14:11;;;;;;;10.55;1.48;;;7.70;99.90;;;;;;5092640;28;20048;-71
2022/04/07 08:16:37;;;;;;;6.78;1.33;;;7.80;99.90;;;;;;5076378;28;20087;-70
2022/04/07 08:19:04;;;;;;;9.35;1.10;;;7.80;99.90;;;;;;5107615;28;20387;-71
2022/04/07 08:21:30;;;;;;;4.63;0.95;;;8.00;99.90;;;;;;5112688;28;20269;-70
2022/04/07 08:23:56;;;;;;;2.88;1.23;;;8.10;99.90;;;;;;5094117;28;20393;-71
2022/04/07 08:26:21;;;;;;;5.45;1.05;;;8.10;99.90;;;;;;5112937;28;20118;-70
2022/04/07 08:28:50;;;;;;;7.22;1.45;;;8.30;99.90;;;;;;5094729;28;20050;-70
2022/04/07 08:31:18;;;;;;;7.07;1.65;;;8.30;99.90;;;;;;5095921;28;20085;-70
2022/04/07 08:33:44;;;;;;;6.65;1.67;;;8.40;99.90;;;;;;5095722;28;20074;-70
2022/04/07 08:36:09;;;;;;;3.67;1.33;;;8.50;99.90;;;;;;5096254;28;20047;-70
2022/04/07 08:38:35;;;;;;;3.67;1.13;;;8.60;99.90;;;;;;5114666;28;20042;-70
2022/04/07 08:41:08;;;;;;;4.78;1.67;;;8.60;99.90;;;;;;5113563;28;20055;-70
2022/04/07 08:43:37;;;;;;;3.17;1.00;;;9.10;99.90;;;;;;5096044;28;20073;-70
2022/04/07 08:46:07;;;;;;;6.07;1.45;;;8.90;99.90;;;;;;5095669;28;20040;-71
2022/04/07 08:48:44;;;;;;;6.15;1.30;;;8.90;99.90;;;;;;5112663;28;20383;-71
2022/04/07 08:51:11;;;;;;;7.15;1.48;;;8.90;99.90;;;;;;5114016;28;20048;-70
2022/04/07 08:53:39;;;;;;;6.05;1.73;;;9.00;99.90;;;;;;5114075;28;20036;-70
2022/04/07 08:56:07;;;;;;;6.15;1.13;;;9.00;99.90;;;;;;5095511;28;20044;-70
2022/04/07 08:58:32;;;;;;;8.10;1.90;;;9.10;99.90;;;;;;5113966;28;20043;-71
2022/04/07 09:00:59;;;;;;;6.40;1.30;;;9.20;99.90;;;;;;5112743;28;20093;-70
2022/04/07 09:03:25;;;;;;;6.35;1.45;;;9.40;99.90;;;;;;5095663;28;20096;-71
2022/04/07 09:06:00;;;;;;;14.40;1.67;;;9.50;99.90;;;;;;5095668;28;20048;-70
2022/04/07 09:08:37;;;;;;;10.57;1.80;;;9.60;99.90;;;;;;5095113;28;20043;-70
2022/04/07 09:11:05;;;;;;;8.10;2.33;;;9.50;99.90;;;;;;5113445;28;20130;-71
2022/04/07 09:13:40;;;;;;;6.85;1.33;;;9.60;99.90;;;;;;5095688;28;20051;-70
2022/04/07 09:16:11;;;;;;;7.60;2.05;;;9.70;99.90;;;;;;5112884;28;20047;-71
2022/04/07 09:18:37;;;;;;;6.85;1.60;;;9.80;99.90;;;;;;5113778;28;20031;-70
2022/04/07 09:21:04;;;;;;;8.13;1.80;;;9.90;99.90;;;;;;5095183;28;20096;-70
2022/04/07 09:23:37;;;;;;;6.38;1.42;;;9.90;99.90;;;;;;5112814;28;20496;-71
2022/04/07 09:26:03;;;;;;;7.30;1.83;;;9.90;99.90;;;;;;5094917;28;20508;-70
2022/04/07 09:28:32;;;;;;;6.18;2.45;;;9.80;99.90;;;;;;5113693;28;20043;-70
2022/04/07 09:30:59;;;;;;;6.60;1.38;;;9.80;99.90;;;;;;5093745;28;20063;-70
2022/04/07 09:33:27;;;;;;;7.13;1.85;;;9.80;99.90;;;;;;5113494;28;20088;-71
2022/04/07 09:36:05;;;;;;;8.13;1.90;;;9.70;99.90;;;;;;5112668;28;20465;-71
2022/04/07 09:38:38;;;;;;;9.38;2.13;;;9.60;99.90;;;;;;5093987;27;20052;-70
2022/04/07 09:41:12;;;;;;;6.88;1.50;;;9.60;99.90;;;;;;5126294;27;20066;-72
2022/04/07 09:43:58;;;;;;;7.05;1.67;;;9.70;99.90;;;;;;5125443;27;20048;-72
2022/04/07 09:46:25;;;;;;;9.75;2.05;;;9.70;99.90;;;;;;5122279;27;20396;-71
2022/04/07 09:49:09;;;;;;;9.55;2.20;;;9.80;99.90;;;;;;5113005;28;20064;-71
2022/04/07 09:51:46;;;;;;;5.97;2.05;;;9.80;99.90;;;;;;5096874;27;20047;-71
2022/04/07 09:54:16;;;;;;;17.27;2.85;;;9.70;99.90;;;;;;5112401;28;20427;-71
2022/04/07 09:56:43;;;;;;;14.65;2.35;;;9.60;99.90;;;;;;5102028;28;20071;-71
2022/04/07 09:59:10;;;;;;;13.55;2.85;;;9.50;99.90;;;;;;5107654;28;20040;-71
2022/04/07 10:01:38;;;;;;;15.23;2.72;;;9.50;99.90;;;;;;5129764;27;20085;-70
2022/04/07 10:04:08;;;;;;;10.15;2.42;;;9.30;99.90;;;;;;5114082;28;20047;-71
2022/04/07 10:06:35;;;;;;;10.82;2.13;;;9.30;99.90;;;;;;5115008;28;20073;-72
2022/04/07 10:09:03;;;;;;;17.23;2.33;;;9.30;99.90;;;;;;5124904;28;20660;-71
2022/04/07 10:11:30;;;;;;;9.48;2.22;;;9.40;99.90;;;;;;5087897;28;20051;-73
2022/04/07 10:13:57;;;;;;;5.38;2.00;;;9.60;99.90;;;;;;5092499;28;20114;-72
2022/04/07 10:16:23;;;;;;;5.75;1.85;;;9.80;99.90;;;;;;5074224;28;20112;-72
2022/04/07 10:18:55;;;;;;;9.20;1.75;;;9.90;99.90;;;;;;5073904;28;20487;-72
2022/04/07 10:21:26;;;;;;;;;;;9.70;99.90;;;;;;5092681;28;20486;-70
2022/04/07 10:24:32;;;;;;;9.23;2.10;;;9.50;99.90;;;;;;5088678;28;20425;-72
2022/04/07 10:27:00;;;;;;;5.78;1.52;;;9.00;99.90;;;;;;5123915;28;20055;-71
2022/04/07 10:29:28;;;;;;;10.63;2.45;;;8.60;99.90;;;;;;5116826;28;20046;-72
2022/04/07 10:32:17;;;;;;;6.95;2.15;;;8.30;99.90;;;;;;5090075;28;20142;-72
2022/04/07 10:34:54;;;;;;;8.45;1.75;;;8.00;99.90;;;;;;5105270;28;20047;-72
2022/04/07 10:37:46;;;;;;;18.17;2.65;;;7.90;99.90;;;;;;5104861;28;20036;-71
2022/04/07 10:40:34;;;;;;;10.93;2.85;;;7.90;99.90;;;;;;5098014;28;20105;-72
2022/04/07 10:43:10;;;;;;;7.85;2.33;;;8.10;99.90;;;;;;5076960;28;20048;-71
2022/04/07 10:45:37;;;;;;;12.55;3.13;;;8.20;99.90;;;;;;5073514;28;20411;-72
2022/04/07 10:48:26;;;;;;;11.00;2.60;;;8.30;99.90;;;;;;5072502;28;20047;-72
2022/04/07 10:51:08;;;;;;;14.63;4.03;;;8.50;99.90;;;;;;5097780;28;20059;-71
2022/04/07 10:53:39;;;;;;;8.15;2.33;;;8.70;99.90;;;;;;5112889;28;20441;-72
2022/04/07 10:56:11;;;;;;;10.38;2.08;;;9.00;99.90;;;;;;5084548;28;20071;-72
2022/04/07 10:58:37;;;;;;;12.07;2.15;;;9.20;99.90;;;;;;5077432;28;20044;-72
2022/04/07 11:01:04;;;;;;;14.30;3.30;;;9.30;99.90;;;;;;5094549;28;20044;-72
2022/04/07 11:03:29;;;;;;;15.50;3.17;;;9.30;99.90;;;;;;5077297;28;20044;-73
2022/04/07 11:06:06;;;;;;;13.27;3.33;;;9.20;99.90;;;;;;5076275;28;20398;-73
2022/04/07 11:08:32;;;;;;;12.85;2.72;;;9.10;99.90;;;;;;5086079;28;20048;-72
2022/04/07 11:10:58;;;;;;;15.30;2.70;;;9.00;99.90;;;;;;5103829;28;20390;-73
2022/04/07 11:13:43;;;;;;;14.90;3.13;;;9.10;99.90;;;;;;5076816;28;20059;-72
2022/04/07 11:16:36;;;;;;;13.02;2.90;;;9.30;99.90;;;;;;5094257;28;20048;-72
2022/04/07 11:19:15;;;;;;;13.85;2.97;;;9.50;99.90;;;;;;5077389;28;20054;-72
2022/04/07 11:22:07;;;;;;;13.82;2.55;;;9.70;99.90;;;;;;5077005;28;20052;-73
2022/04/07 11:24:39;;;;;;;12.82;2.35;;;9.80;99.90;;;;;;5090254;28;20610;-73
2022/04/07 11:27:34;;;;;;;11.63;3.00;;;9.90;99.90;;;;;;5106018;28;20040;-73
2022/04/07 11:30:05;;;;;;;15.95;3.00;;;9.80;99.90;;;;;;5091791;28;20079;-72
2022/04/07 11:32:30;;;;;;;10.57;2.67;;;9.80;99.90;;;;;;5115708;28;20459;-73
2022/04/07 11:34:58;;;;;;;15.15;2.45;;;9.70;99.90;;;;;;5114718;28;20090;-73
2022/04/07 11:37:27;;;;;;;11.55;3.03;;;9.70;99.90;;;;;;5095380;28;20092;-73
2022/04/07 11:39:53;;;;;;;12.82;3.03;;;10.50;99.90;;;;;;5102270;28;20118;-72
2022/04/07 11:42:21;;;;;;;17.17;2.25;;;9.70;99.90;;;;;;5076223;28;20455;-72
2022/04/07 11:44:47;;;;;;;14.25;3.95;;;9.80;99.90;;;;;;5089023;28;20044;-72
2022/04/07 11:47:24;;;;;;;11.80;2.38;;;9.80;99.90;;;;;;5096007;28;20089;-72
2022/04/07 11:49:50;;;;;;;12.23;2.63;;;9.90;99.90;;;;;;5113231;28;20128;-73
2022/04/07 11:52:21;;;;;;;13.63;3.58;;;10.10;99.90;;;;;;5097281;28;20486;-72
2022/04/07 11:54:53;;;;;;;12.57;2.47;;;10.20;99.90;;;;;;5107512;28;20398;-73
2022/04/07 11:57:20;;;;;;;12.10;2.42;;;10.20;99.90;;;;;;5107885;28;20044;-73
2022/04/07 11:59:45;;;;;;;11.13;2.25;;;10.10;99.90;;;;;;5115032;28;20047;-73
2022/04/07 12:02:20;;;;;;;12.20;3.17;;;10.00;99.90;;;;;;5096190;28;20050;-73
2022/04/07 12:04:45;;;;;;;12.90;2.53;;;9.90;99.90;;;;;;5111110;27;20036;-73
2022/04/07 12:07:11;;;;;;;8.60;3.90;;;9.90;99.90;;;;;;5108290;28;20035;-72
2022/04/07 12:09:37;;;;;;;9.60;1.90;;;9.90;99.90;;;;;;5087649;28;20490;-74
2022/04/07 12:12:02;;;;;;;8.82;2.35;;;10.00;99.90;;;;;;5113875;28;20478;-73
2022/04/07 12:14:28;;;;;;;10.30;2.08;;;10.10;99.90;;;;;;5094353;28;20047;-75
2022/04/07 12:16:54;;;;;;;11.45;2.30;;;10.10;99.90;;;;;;5088689;28;20054;-73
2022/04/07 12:19:20;;;;;;;10.15;3.25;;;9.90;99.90;;;;;;5074976;28;20486;-73
2022/04/07 12:21:56;;;;;;;7.15;2.53;;;9.70;99.90;;;;;;5085984;28;20045;-73
2022/04/07 12:24:23;;;;;;;5.78;1.80;;;9.20;99.90;;;;;;5095651;28;20062;-68
2022/04/07 12:26:54;;;;;;;5.63;1.85;;;8.70;99.90;;;;;;5113360;28;20082;-70
2022/04/07 12:29:31;;;;;;;10.80;1.80;;;8.30;99.90;;;;;;5111136;28;20081;-70
2022/04/07 12:32:00;;;;;;;5.18;1.30;;;8.00;99.90;;;;;;5112475;28;20482;-76
2022/04/07 12:34:26;;;;;;;7.03;1.38;;;7.80;99.90;;;;;;5114122;28;20032;-75
2022/04/07 12:36:55;;;;;;;6.35;1.92;;;7.70;99.90;;;;;;5112457;28;20506;-74
2022/04/07 12:39:21;;;;;;;5.80;1.23;;;7.70;99.90;;;;;;5091605;28;20074;-73
2022/04/07 12:41:55;;;;;;;11.80;1.90;;;7.90;99.90;;;;;;5112499;27;20039;-74
2022/04/07 12:44:36;;;;;;;10.07;2.17;;;8.20;99.90;;;;;;5096916;28;20036;-74
2022/04/07 12:47:14;;;;;;;14.18;3.33;;;8.70;99.90;;;;;;5094153;28;20419;-74
2022/04/07 12:49:52;;;;;;;15.82;3.00;;;9.10;99.90;;;;;;5108548;27;20400;-73
2022/04/07 12:52:19;;;;;;;12.80;2.25;;;9.40;99.90;;;;;;5120065;27;20047;-71
2022/04/07 12:54:59;;;;;;;10.35;2.58;;;9.50;99.90;;;;;;5093918;28;20447;-70
2022/04/07 12:57:42;;;;;;;7.03;2.33;;;9.50;99.90;;;;;;5111367;28;20047;-70